Time;durP1;ratioP1;P1;durP2;ratioP2;P2;SDS_P1;SDS_P2;PMS_P1;PMS_P2;Temp;Humidity;BMP_temperature;BMP_pressure;BME280_temperature;BME280_humidity;BME280_pressure;Samples;Min_cycle;Max_cycle;Signal;HPM_P1;HPM_P2
2022/01/14 00:01:59;;;;;;;28.83;22.20;;;;;;;-1.52;100.00;102379.34;4999938;28;20204;-46
2022/01/14 00:04:25;;;;;;;26.07;20.53;;;;;;;-1.54;100.00;102380.88;4999889;28;20210;-46
2022/01/14 00:06:51;;;;;;;27.07;21.53;;;;;;;-1.57;100.00;102378.09;4999863;28;20570;-46
2022/01/14 00:09:17;;;;;;;28.03;20.43;;;;;;;-1.59;100.00;102377.97;5008547;28;20190;-45
2022/01/14 00:11:48;;;;;;;29.17;21.17;;;;;;;-1.63;100.00;102376.00;4999526;28;20214;-48
2022/01/14 00:16:40;;;;;;;32.60;22.20;;;;;;;-1.65;100.00;102369.91;5000120;28;20238;-47
2022/01/14 00:19:06;;;;;;;26.37;21.40;;;;;;;-1.65;100.00;102369.91;5001571;28;20248;-47
2022/01/14 00:21:34;;;;;;;26.50;21.60;;;;;;;-1.66;100.00;102365.59;4997202;28;20641;-46
2022/01/14 00:24:12;;;;;;;25.87;20.97;;;;;;;-1.67;100.00;102371.44;5005684;28;20218;-47
2022/01/14 00:32:31;;;;;;;30.03;23.97;;;;;;;-1.70;100.00;102389.91;4951322;28;20243;-47
2022/01/14 00:34:56;;;;;;;32.13;23.97;;;;;;;-1.72;100.00;102393.06;5001859;28;20216;-46
2022/01/14 00:37:21;;;;;;;34.83;26.17;;;;;;;-1.77;100.00;102381.69;5005854;28;20630;-46
2022/01/14 00:39:47;;;;;;;32.77;24.30;;;;;;;-1.80;100.00;102391.63;4999192;28;20238;-47
2022/01/14 00:42:13;;;;;;;30.37;22.87;;;;;;;-1.82;100.00;102375.38;4999174;28;20903;-47
2022/01/14 00:44:39;;;;;;;29.70;22.70;;;;;;;-1.84;100.00;102382.91;4995395;28;20715;-46
2022/01/14 00:47:05;;;;;;;29.87;22.43;;;;;;;-1.86;100.00;102377.69;4999360;28;20193;-47
2022/01/14 00:49:30;;;;;;;30.00;22.20;;;;;;;-1.88;100.00;102381.75;4997696;28;20197;-46
2022/01/14 00:51:55;;;;;;;27.90;22.33;;;;;;;-1.90;100.00;102382.41;5001764;28;20568;-47
2022/01/14 00:54:21;;;;;;;29.47;21.97;;;;;;;-1.90;100.00;102385.84;4998409;28;20219;-47
2022/01/14 00:57:02;;;;;;;28.67;21.60;;;;;;;-1.91;100.00;102375.56;4994533;28;20642;-47
2022/01/14 00:59:28;;;;;;;26.77;21.63;;;;;;;-1.91;100.00;102373.03;5003110;28;20588;-47
2022/01/14 01:01:56;;;;;;;27.93;21.50;;;;;;;-1.89;100.00;102379.13;5000382;28;20280;-46
2022/01/14 01:04:21;;;;;;;28.20;22.13;;;;;;;-1.89;100.00;102379.97;5000131;28;20247;-46
2022/01/14 01:06:50;;;;;;;31.70;21.80;;;;;;;-1.87;100.00;102369.97;5003423;28;20203;-47
2022/01/14 01:09:16;;;;;;;29.20;22.33;;;;;;;-1.85;100.00;102376.03;4997521;28;20653;-48
2022/01/14 01:11:50;;;;;;;28.93;21.53;;;;;;;-1.82;100.00;102375.38;4997782;28;20250;-47
2022/01/14 01:15:04;;;;;;;26.67;21.00;;;;;;;-1.84;100.00;102375.28;5002502;28;20186;-47
2022/01/14 01:17:04;;;;;;;26.07;19.70;;;;;;;-1.84;100.00;102370.19;4988015;28;20202;-47
2022/01/14 01:19:29;;;;;;;22.53;18.50;;;;;;;-1.85;100.00;102376.91;5001357;28;20199;-46
2022/01/14 01:21:54;;;;;;;22.73;18.53;;;;;;;-1.84;100.00;102378.69;5002346;28;20642;-47
2022/01/14 01:24:20;;;;;;;22.93;18.67;;;;;;;-1.81;100.00;102380.56;4998180;28;20225;-47
2022/01/14 01:26:45;;;;;;;23.40;18.70;;;;;;;-1.80;100.00;102379.78;5004460;28;20196;-47
2022/01/14 01:31:38;;;;;;;28.30;22.70;;;;;;;-1.81;100.00;102389.84;4999338;28;20215;-47
2022/01/14 01:34:05;;;;;;;24.70;20.43;;;;;;;-1.86;100.00;102386.97;5000391;28;20189;-47
2022/01/14 01:36:30;;;;;;;25.70;21.57;;;;;;;-1.90;100.00;102388.41;5014973;28;20218;-47
2022/01/14 01:38:56;;;;;;;25.97;20.53;;;;;;;-1.90;100.00;102388.41;4998833;28;21890;-47
2022/01/14 01:41:21;;;;;;;22.00;19.60;;;;;;;-1.91;100.00;102386.63;5000368;28;20206;-47
2022/01/14 01:43:51;;;;;;;28.60;22.77;;;;;;;-1.92;100.00;102386.50;5001506;28;20233;-47
2022/01/14 01:46:20;;;;;;;33.20;26.30;;;;;;;-1.93;100.00;102384.72;5005553;28;20208;-49
2022/01/14 01:48:46;;;;;;;39.80;30.40;;;;;;;-1.91;100.00;102385.72;4998148;28;20654;-47
2022/01/14 01:51:12;;;;;;;33.80;25.87;;;;;;;-1.92;100.00;102382.31;5004143;28;20751;-47
2022/01/14 01:53:37;;;;;;;29.13;23.63;;;;;;;-1.93;100.00;102384.72;5002562;28;20193;-48
2022/01/14 01:56:03;;;;;;;32.73;26.47;;;;;;;-1.92;100.00;102387.38;5002406;28;20218;-47
2022/01/14 01:58:28;;;;;;;26.63;22.53;;;;;;;-1.92;100.00;102382.31;5005649;28;20208;-48
2022/01/14 02:00:54;;;;;;;28.07;22.17;;;;;;;-1.92;100.00;102382.31;4996980;28;20273;-47
2022/01/14 02:03:19;;;;;;;26.60;20.80;;;;;;;-1.92;100.00;102384.84;4998352;28;20192;-47
2022/01/14 02:05:46;;;;;;;25.80;20.97;;;;;;;-1.92;100.00;102383.94;4996447;28;20284;-48
2022/01/14 02:08:12;;;;;;;29.23;22.43;;;;;;;-1.93;100.00;102379.63;5000380;28;20192;-47
2022/01/14 02:10:39;;;;;;;34.67;24.70;;;;;;;-1.95;100.00;102382.06;5000744;28;20910;-47
2022/01/14 02:13:05;;;;;;;37.37;26.40;;;;;;;-1.97;100.00;102386.16;5000282;28;20260;-46
2022/01/14 02:15:45;;;;;;;36.93;26.93;;;;;;;-1.98;100.00;102383.50;5001476;28;20220;-47
2022/01/14 02:23:27;;;;;;;25.63;20.33;;;;;;;-2.05;100.00;102377.06;5003056;28;21699;-46
2022/01/14 02:25:52;;;;;;;26.00;20.20;;;;;;;-2.07;100.00;102379.47;4995316;28;20204;-46
2022/01/14 02:28:18;;;;;;;23.70;18.67;;;;;;;-2.08;100.00;102374.31;4994297;28;20499;-47
2022/01/14 02:30:46;;;;;;;24.43;19.43;;;;;;;-2.08;100.00;102377.72;4999328;28;20634;-46
2022/01/14 02:33:13;;;;;;;23.63;17.97;;;;;;;-2.09;100.00;102372.53;5000000;28;20192;-46
2022/01/14 02:35:41;;;;;;;24.73;18.73;;;;;;;-2.10;100.00;102371.63;4996762;28;20218;-46
2022/01/14 02:38:09;;;;;;;22.83;18.43;;;;;;;-2.11;100.00;102374.06;5003586;28;20198;-46
2022/01/14 02:40:36;;;;;;;24.17;17.67;;;;;;;-2.13;100.00;102373.97;4997506;28;20271;-46
2022/01/14 02:43:02;;;;;;;25.20;19.17;;;;;;;-2.11;100.00;102374.06;4992391;28;20194;-46
2022/01/14 02:45:31;;;;;;;23.30;18.90;;;;;;;-2.09;100.00;102367.44;4998410;28;20619;-46
2022/01/14 02:47:57;;;;;;;23.00;17.77;;;;;;;-2.10;100.00;102358.94;4996871;28;20205;-48
2022/01/14 02:50:27;;;;;;;20.37;17.13;;;;;;;-2.12;100.00;102357.06;4998069;28;20496;-48
2022/01/14 02:55:21;;;;;;;23.53;18.83;;;;;;;-2.16;100.00;102344.13;5003840;28;20208;-48
2022/01/14 02:57:52;;;;;;;22.37;17.80;;;;;;;-2.18;100.00;102342.25;5000378;28;20202;-48
2022/01/14 03:00:20;;;;;;;23.00;18.13;;;;;;;-2.19;100.00;102335.44;4991841;28;20227;-48
2022/01/14 03:02:48;;;;;;;24.47;19.43;;;;;;;-2.20;100.00;102331.13;5000482;28;20192;-47
2022/01/14 03:05:17;;;;;;;24.27;19.27;;;;;;;-2.21;100.00;102329.34;5001897;28;20268;-46
2022/01/14 03:07:43;;;;;;;26.40;21.00;;;;;;;-2.21;100.00;102329.34;4998204;28;20204;-48
2022/01/14 03:10:11;;;;;;;27.90;20.93;;;;;;;-2.23;100.00;102323.25;4999227;28;20557;-46
2022/01/14 03:12:38;;;;;;;27.17;20.70;;;;;;;-2.25;100.00;102319.72;4996213;28;20629;-45
2022/01/14 03:15:04;;;;;;;26.60;19.30;;;;;;;-2.27;100.00;102319.63;4989804;28;20220;-47
2022/01/14 03:17:30;;;;;;;26.20;19.60;;;;;;;-2.31;100.00;102315.97;4991255;28;20193;-46
2022/01/14 03:19:57;;;;;;;23.70;19.23;;;;;;;-2.30;100.00;102314.31;4995227;28;20195;-46
2022/01/14 03:22:30;;;;;;;27.53;21.00;;;;;;;-2.30;100.00;102309.22;4998127;28;20200;-47
2022/01/14 03:27:22;;;;;;;28.47;21.10;;;;;;;-2.31;100.00;102305.81;5000827;28;20191;-46
2022/01/14 03:29:47;;;;;;;26.37;20.80;;;;;;;-2.31;100.00;102313.44;4999269;28;20279;-47
2022/01/14 03:32:13;;;;;;;27.77;22.03;;;;;;;-2.32;100.00;102309.13;5001273;28;20188;-46
2022/01/14 03:34:39;;;;;;;26.97;20.33;;;;;;;-2.33;100.00;102299.75;5001532;28;20262;-47
2022/01/14 03:37:05;;;;;;;26.10;20.17;;;;;;;-2.33;100.00;102297.22;5000181;28;20189;-46
2022/01/14 03:39:31;;;;;;;25.67;20.33;;;;;;;-2.29;100.00;102300.88;4995735;28;20200;-46
2022/01/14 03:41:59;;;;;;;28.60;22.27;;;;;;;-2.24;100.00;102291.06;4995015;28;20200;-46
2022/01/14 03:44:24;;;;;;;29.23;22.27;;;;;;;-2.19;100.00;102295.72;4997052;28;20221;-47
2022/01/14 03:46:50;;;;;;;30.43;23.10;;;;;;;-2.14;100.00;102298.63;4994741;28;20255;-46
2022/01/14 03:49:15;;;;;;;30.50;22.97;;;;;;;-2.11;100.00;102295.41;4996475;28;20196;-46
2022/01/14 03:51:42;;;;;;;31.67;24.23;;;;;;;-2.10;100.00;102295.50;4997645;28;20568;-46
2022/01/14 03:54:08;;;;;;;33.97;26.00;;;;;;;-2.09;100.00;102296.41;4993610;28;20672;-49
2022/01/14 03:56:33;;;;;;;35.73;25.53;;;;;;;-2.11;100.00;102288.66;4994838;28;20212;-46
2022/01/14 03:58:59;;;;;;;33.90;23.07;;;;;;;-2.11;100.00;102295.41;4991689;28;20205;-46
2022/01/14 04:01:24;;;;;;;32.83;23.90;;;;;;;-2.10;100.00;102285.38;4998072;28;20306;-49
2022/01/14 04:03:50;;;;;;;37.20;24.77;;;;;;;-2.09;100.00;102291.34;4995197;28;20219;-47
2022/01/14 04:06:16;;;;;;;35.73;25.37;;;;;;;-2.08;100.00;102293.13;4999403;28;20696;-47
2022/01/14 04:08:43;;;;;;;35.60;25.23;;;;;;;-2.07;100.00;102294.88;4996970;28;20277;-46
2022/01/14 04:11:09;;;;;;;35.27;24.27;;;;;;;-2.09;100.00;102297.28;4993215;28;20273;-46
2022/01/14 04:14:06;;;;;;;35.57;24.50;;;;;;;-2.08;100.00;102290.56;5000223;28;20564;-46
2022/01/14 04:16:23;;;;;;;32.17;22.90;;;;;;;-2.07;100.00;102298.28;4999212;28;20740;-46
2022/01/14 04:18:50;;;;;;;35.33;23.90;;;;;;;-2.09;100.00;102297.28;4999167;28;20409;-45
2022/01/14 04:21:15;;;;;;;36.33;24.57;;;;;;;-2.07;100.00;102294.88;4998773;28;20215;-47
2022/01/14 04:23:41;;;;;;;36.90;26.20;;;;;;;-2.09;100.00;102289.69;5002767;28;20193;-47
2022/01/14 04:26:06;;;;;;;39.10;27.50;;;;;;;-2.11;100.00;102291.22;4996453;28;20285;-47
2022/01/14 04:28:36;;;;;;;38.73;27.13;;;;;;;-2.16;100.00;102290.88;5002383;28;20542;-46
2022/01/14 04:31:03;;;;;;;38.97;26.43;;;;;;;-2.20;100.00;102296.50;5000021;28;20193;-46
2022/01/14 04:33:30;;;;;;;37.00;24.67;;;;;;;-2.19;100.00;102300.78;5000001;28;20284;-45
2022/01/14 04:35:58;;;;;;;34.67;24.03;;;;;;;-2.17;100.00;102295.84;5001643;28;20291;-48
2022/01/14 04:38:25;;;;;;;38.70;25.63;;;;;;;-2.13;100.00;102304.56;5006583;28;20327;-47
2022/01/14 04:40:50;;;;;;;31.93;22.50;;;;;;;-2.07;100.00;102303.38;4998949;28;20191;-46
2022/01/14 04:43:19;;;;;;;33.60;23.33;;;;;;;-1.98;100.00;102307.38;5003086;28;20196;-46
2022/01/14 04:46:02;;;;;;;31.93;22.03;;;;;;;-1.88;100.00;102305.63;4993423;28;20610;-48
2022/01/14 04:48:32;;;;;;;28.97;20.43;;;;;;;-1.76;100.00;102313.25;5000057;28;20247;-46
2022/01/14 04:50:59;;;;;;;27.97;19.83;;;;;;;-1.66;100.00;102311.44;4995953;28;20206;-48
2022/01/14 04:53:24;;;;;;;25.73;18.93;;;;;;;-1.56;100.00;102308.78;5000082;28;20200;-47
2022/01/14 04:55:51;;;;;;;23.73;18.40;;;;;;;-1.48;100.00;102310.22;4995769;28;20222;-47
2022/01/14 04:58:16;;;;;;;23.40;18.33;;;;;;;-1.41;100.00;102309.00;5000155;28;20589;-48
2022/01/14 05:00:42;;;;;;;25.90;18.47;;;;;;;-1.33;100.00;102305.38;5001395;28;20202;-47
2022/01/14 05:03:07;;;;;;;23.67;17.90;;;;;;;-1.27;100.00;102295.63;4997694;28;20200;-47
2022/01/14 05:05:36;;;;;;;25.63;19.07;;;;;;;-1.20;100.00;102294.41;4996639;28;20716;-47
2022/01/14 05:08:05;;;;;;;26.60;18.83;;;;;;;-1.14;100.00;102294.84;4998145;28;20288;-47
2022/01/14 05:12:56;;;;;;;26.03;18.40;;;;;;;-1.03;100.00;102295.63;4999946;28;20195;-47
2022/01/14 05:15:22;;;;;;;24.10;18.53;;;;;;;-0.98;100.00;102295.94;4997019;28;20262;-47
2022/01/14 05:17:49;;;;;;;24.27;17.30;;;;;;;-0.95;100.00;102288.53;4992985;28;20214;-47
2022/01/14 05:20:17;;;;;;;24.87;18.40;;;;;;;-0.93;100.00;102292.94;4998855;28;20210;-47
2022/01/14 05:22:42;;;;;;;24.20;18.60;;;;;;;-0.90;100.00;102294.81;5012534;28;20196;-47
2022/01/14 05:25:10;;;;;;;25.67;18.77;;;;;;;-0.85;100.00;102298.56;5010074;28;20241;-47
2022/01/14 05:27:36;;;;;;;26.43;17.97;;;;;;;-0.83;100.00;102298.69;5016067;28;20695;-47
2022/01/14 05:30:05;;;;;;;26.13;18.27;;;;;;;-0.80;100.00;102293.81;5003736;28;20217;-47
2022/01/14 05:32:30;;;;;;;23.10;17.60;;;;;;;-0.77;100.00;102296.56;5004706;28;20565;-47
2022/01/14 05:34:55;;;;;;;27.70;18.53;;;;;;;-0.74;100.00;102293.34;4994227;28;20203;-47
2022/01/14 05:37:21;;;;;;;29.37;19.47;;;;;;;-0.72;100.00;102279.97;5001720;28;20194;-47
2022/01/14 05:39:46;;;;;;;28.63;19.87;;;;;;;-0.68;100.00;102283.63;4996820;28;20285;-46
2022/01/14 05:42:12;;;;;;;25.70;19.33;;;;;;;-0.66;100.00;102289.69;5004561;28;20276;-47
2022/01/14 05:44:38;;;;;;;29.67;20.90;;;;;;;-0.64;100.00;102291.56;4992399;28;20271;-46
2022/01/14 05:47:03;;;;;;;30.87;22.43;;;;;;;-0.61;100.00;102290.91;4994473;28;20211;-46
2022/01/14 05:49:29;;;;;;;32.00;22.13;;;;;;;-0.61;100.00;102288.34;4992234;28;20206;-46
2022/01/14 05:51:55;;;;;;;28.70;20.80;;;;;;;-0.59;100.00;102284.22;4994855;28;20281;-47
2022/01/14 05:54:22;;;;;;;27.77;19.90;;;;;;;-0.57;100.00;102272.50;4995275;28;20187;-47
2022/01/14 05:56:48;;;;;;;28.17;19.83;;;;;;;-0.53;100.00;102276.16;4992250;28;20203;-47
2022/01/14 05:59:14;;;;;;;27.87;20.37;;;;;;;-0.51;100.00;102277.13;4992436;28;20195;-47
2022/01/14 06:01:40;;;;;;;28.80;21.27;;;;;;;-0.49;100.00;102273.94;4992713;28;20187;-47
2022/01/14 06:04:06;;;;;;;30.83;21.33;;;;;;;-0.47;100.00;102268.94;4987418;28;20207;-46
2022/01/14 06:06:33;;;;;;;29.13;21.07;;;;;;;-0.43;100.00;102273.47;4996715;28;20224;-47
2022/01/14 06:08:59;;;;;;;30.67;20.73;;;;;;;-0.40;100.00;102277.88;4991670;28;20666;-48
2022/01/14 06:11:25;;;;;;;31.80;21.47;;;;;;;-0.38;100.00;102268.69;4994616;28;20581;-47
2022/01/14 06:13:53;;;;;;;31.17;20.83;;;;;;;-0.37;100.00;102271.31;4995028;28;20580;-47
2022/01/14 06:16:19;;;;;;;31.83;21.70;;;;;;;-0.35;100.00;102269.78;4995564;28;20224;-47
2022/01/14 06:18:45;;;;;;;31.13;21.83;;;;;;;-0.34;100.00;102268.13;5001859;28;20225;-47
2022/01/14 06:21:11;;;;;;;30.23;21.30;;;;;;;-0.34;100.00;102270.66;4997783;28;20197;-47
2022/01/14 06:23:37;;;;;;;33.10;23.40;;;;;;;-0.32;100.00;102264.03;4997363;28;20202;-47
2022/01/14 06:26:03;;;;;;;33.63;23.20;;;;;;;-0.31;100.00;102255.63;5002709;28;20216;-46
2022/01/14 06:28:28;;;;;;;31.60;23.00;;;;;;;-0.32;100.00;102262.34;5003402;28;20194;-48
2022/01/14 06:30:53;;;;;;;32.70;22.87;;;;;;;-0.32;100.00;102262.34;5001505;28;20266;-47
2022/01/14 06:33:19;;;;;;;30.83;22.90;;;;;;;-0.32;100.00;102264.03;4997608;28;20203;-47
2022/01/14 06:35:45;;;;;;;34.67;24.40;;;;;;;-0.31;100.00;102266.66;4993269;28;20260;-47
2022/01/14 06:38:10;;;;;;;34.83;23.50;;;;;;;-0.32;100.00;102257.25;4996008;28;20772;-47
2022/01/14 06:40:37;;;;;;;31.67;21.87;;;;;;;-0.30;100.00;102259.91;4998322;28;20199;-47
2022/01/14 06:43:04;;;;;;;29.70;20.90;;;;;;;-0.29;100.00;102255.72;4998187;28;20219;-47
2022/01/14 06:45:31;;;;;;;33.37;22.57;;;;;;;-0.27;100.00;102255.00;4995697;28;20221;-47
2022/01/14 06:47:57;;;;;;;32.43;22.83;;;;;;;-0.28;100.00;102253.25;4997431;28;20200;-49
2022/01/14 06:50:22;;;;;;;36.37;23.87;;;;;;;-0.29;100.00;102263.34;4995394;28;20632;-49
2022/01/14 06:52:48;;;;;;;33.00;23.43;;;;;;;-0.32;100.00;102264.03;4990433;28;20286;-49
2022/01/14 06:55:13;;;;;;;32.43;22.13;;;;;;;-0.33;100.00;102259.72;4993116;28;20247;-48
2022/01/14 06:57:39;;;;;;;33.67;23.77;;;;;;;-0.33;100.00;102262.25;4992654;28;20206;-48
2022/01/14 07:00:10;;;;;;;32.67;23.40;;;;;;;-0.35;100.00;102256.19;4996272;28;20194;-47
2022/01/14 07:02:35;;;;;;;34.33;23.30;;;;;;;-0.39;100.00;102257.63;4997590;28;20900;-48
2022/01/14 07:05:01;;;;;;;34.47;24.40;;;;;;;-0.41;100.00;102264.28;4998031;28;20271;-48
2022/01/14 07:07:26;;;;;;;34.37;22.97;;;;;;;-0.43;100.00;102262.38;4995206;28;22211;-48
2022/01/14 07:09:58;;;;;;;31.57;22.57;;;;;;;-0.45;100.00;102267.38;5005287;28;20198;-48
2022/01/14 07:12:33;;;;;;;31.23;23.07;;;;;;;-0.44;100.00;102269.16;4996685;28;20292;-48
2022/01/14 07:14:59;;;;;;;31.03;22.23;;;;;;;-0.43;100.00;102262.38;5001298;28;20230;-48
2022/01/14 07:17:26;;;;;;;36.43;25.83;;;;;;;-0.42;100.00;102267.59;5009344;28;20172;-47
2022/01/14 07:19:54;;;;;;;34.00;24.77;;;;;;;-0.41;100.00;102273.56;5006553;28;20643;-48
2022/01/14 07:22:20;;;;;;;33.90;24.97;;;;;;;-0.43;100.00;102270.03;5008788;28;20231;-48
2022/01/14 07:24:46;;;;;;;31.30;23.43;;;;;;;-0.47;100.00;102269.84;4996471;28;20305;-47
2022/01/14 07:27:12;;;;;;;28.83;21.93;;;;;;;-0.48;100.00;102275.72;4994125;28;20269;-47
2022/01/14 07:29:38;;;;;;;26.23;20.93;;;;;;;-0.51;100.00;102284.75;5006098;28;20551;-47
2022/01/14 07:32:04;;;;;;;23.53;18.27;;;;;;;-0.55;100.00;102291.31;4997919;28;20210;-47
2022/01/14 07:34:30;;;;;;;18.77;16.17;;;;;;;-0.56;100.00;102304.81;4991075;28;20195;-47
2022/01/14 07:36:55;;;;;;;17.37;15.00;;;;;;;-0.57;100.00;102308.13;5016368;28;20230;-47
2022/01/14 07:39:22;;;;;;;18.00;14.90;;;;;;;-0.53;100.00;102311.78;4999667;28;20243;-47
2022/01/14 07:41:48;;;;;;;20.30;16.93;;;;;;;-0.53;100.00;102309.22;5007600;28;20194;-46
2022/01/14 07:44:14;;;;;;;19.07;16.77;;;;;;;-0.53;100.00;102310.09;5005705;28;20608;-47
2022/01/14 07:46:40;;;;;;;21.17;17.63;;;;;;;-0.51;100.00;102306.00;4991386;28;20259;-46
2022/01/14 07:49:05;;;;;;;21.27;16.30;;;;;;;-0.48;100.00;102305.31;5003077;28;20282;-47
2022/01/14 07:51:30;;;;;;;18.40;15.67;;;;;;;-0.45;100.00;102302.13;5008423;28;20669;-47
2022/01/14 07:54:04;;;;;;;19.37;15.97;;;;;;;-0.41;100.00;102296.44;5009869;28;20188;-46
2022/01/14 07:56:30;;;;;;;18.77;15.70;;;;;;;-0.37;100.00;102301.84;4994386;28;20348;-47
2022/01/14 07:58:56;;;;;;;18.73;15.50;;;;;;;-0.32;100.00;102304.72;4995683;28;20206;-47
2022/01/14 08:01:21;;;;;;;17.23;14.20;;;;;;;-0.28;100.00;102304.13;4995776;28;20214;-46
2022/01/14 08:03:46;;;;;;;18.00;14.83;;;;;;;-0.22;100.00;102308.75;5022916;28;20194;-47
2022/01/14 08:06:13;;;;;;;21.23;16.83;;;;;;;-0.18;100.00;102316.72;4993389;28;20295;-47
2022/01/14 08:08:39;;;;;;;23.47;18.00;;;;;;;-0.17;100.00;102308.31;5003696;28;20274;-47
2022/01/14 08:11:05;;;;;;;22.23;17.47;;;;;;;-0.16;100.00;102317.72;5015193;28;20328;-47
2022/01/14 08:13:31;;;;;;;24.13;19.17;;;;;;;-0.16;100.00;102317.72;5020280;28;20683;-46
2022/01/14 08:15:56;;;;;;;21.97;17.73;;;;;;;-0.16;100.00;102321.91;5002539;28;20262;-47
2022/01/14 08:18:22;;;;;;;19.60;16.03;;;;;;;-0.13;100.00;102317.03;5014965;28;20190;-46
2022/01/14 08:20:50;;;;;;;21.80;17.00;;;;;;;-0.09;100.00;102319.00;5015599;28;20254;-47
2022/01/14 08:23:15;;;;;;;19.80;16.20;;;;;;;-0.06;100.00;102320.88;5013513;28;20189;-47
2022/01/14 08:25:41;;;;;;;18.90;16.17;;;;;;;-0.04;100.00;102325.28;5014622;28;20273;-47
2022/01/14 08:28:06;;;;;;;19.40;16.53;;;;;;;-0.01;100.00;102325.50;5017736;28;20185;-47
2022/01/14 08:30:31;;;;;;;19.07;15.53;;;;;;;0.01;100.00;102325.56;5019927;28;20266;-46
2022/01/14 08:32:57;;;;;;;18.20;15.97;;;;;;;0.03;100.00;102324.03;5009596;28;20612;-47
2022/01/14 08:35:22;;;;;;;17.33;14.47;;;;;;;0.04;100.00;102324.94;5007469;28;20568;-48
2022/01/14 08:37:48;;;;;;;18.23;15.17;;;;;;;0.05;100.00;102326.69;5017395;28;20201;-48
2022/01/14 08:40:13;;;;;;;18.10;14.93;;;;;;;0.08;100.00;102321.78;5003344;28;20620;-46
2022/01/14 08:42:39;;;;;;;16.43;13.63;;;;;;;0.08;100.00;102311.59;5013227;28;20602;-46
2022/01/14 08:45:05;;;;;;;20.33;16.03;;;;;;;0.11;100.00;102309.25;5004674;28;20324;-47
2022/01/14 08:47:31;;;;;;;19.07;15.30;;;;;;;0.08;100.00;102307.41;5008059;28;20201;-48
2022/01/14 08:49:57;;;;;;;17.13;14.20;;;;;;;0.09;100.00;102306.63;5006517;28;20690;-47
2022/01/14 08:52:22;;;;;;;16.20;13.73;;;;;;;0.13;100.00;102303.50;4995134;28;20187;-47
2022/01/14 08:54:48;;;;;;;15.43;13.30;;;;;;;0.22;100.00;102304.88;4993151;28;20197;-47
2022/01/14 08:57:13;;;;;;;16.83;13.73;;;;;;;0.30;100.00;102301.19;5003000;28;20283;-48
2022/01/14 08:59:40;;;;;;;17.10;13.80;;;;;;;0.35;100.00;102304.03;5013779;28;20204;-48
2022/01/14 09:02:06;;;;;;;18.20;15.83;;;;;;;0.36;100.00;102306.66;5014671;28;20187;-47
2022/01/14 09:04:32;;;;;;;18.70;16.27;;;;;;;0.36;100.00;102301.56;5013805;28;20222;-47
2022/01/14 09:06:57;;;;;;;16.83;14.80;;;;;;;0.36;100.00;102291.38;5008116;28;20199;-47
2022/01/14 09:09:23;;;;;;;20.80;17.00;;;;;;;0.39;100.00;102286.50;5005602;28;20193;-47
2022/01/14 09:11:48;;;;;;;23.17;17.63;;;;;;;0.42;100.00;102288.34;5018297;28;20197;-46
2022/01/14 09:14:13;;;;;;;21.83;17.23;;;;;;;0.52;100.00;102280.53;5019244;28;20221;-47
2022/01/14 09:16:39;;;;;;;17.17;14.93;;;;;;;0.66;100.00;102286.50;4998793;28;20246;-47
2022/01/14 09:19:04;;;;;;;20.50;15.70;;;;;;;0.79;100.00;102293.28;5013444;28;20187;-47
2022/01/14 09:21:30;;;;;;;18.40;14.53;;;;;;;0.88;100.00;102293.84;5014202;28;20262;-47
2022/01/14 09:24:04;;;;;;;19.23;14.73;;;;;;;0.98;100.00;102287.66;5005500;28;20293;-47
2022/01/14 09:26:34;;;;;;;19.83;16.83;;;;;;;1.08;100.00;102296.78;4995222;28;20745;-45
2022/01/14 09:29:02;;;;;;;19.67;17.20;;;;;;;1.13;100.00;102302.16;5016801;28;20697;-46
2022/01/14 09:31:27;;;;;;;19.33;15.20;;;;;;;1.20;100.00;102304.31;5007406;28;20196;-47
2022/01/14 09:33:53;;;;;;;18.70;16.00;;;;;;;1.27;100.00;102303.03;5013714;28;21781;-45
2022/01/14 09:36:19;;;;;;;19.87;16.33;;;;;;;1.26;100.00;102304.66;5025471;28;20214;-47
2022/01/14 09:38:45;;;;;;;20.20;15.97;;;;;;;1.26;100.00;102304.66;4995578;28;20553;-47
2022/01/14 09:41:13;;;;;;;19.07;14.80;;;;;;;1.32;100.00;102299.06;5002412;28;20189;-47
2022/01/14 09:43:39;;;;;;;20.03;17.77;;;;;;;1.40;100.00;102300.44;5010816;28;20200;-47
2022/01/14 09:46:09;;;;;;;18.90;16.33;;;;;;;1.44;100.00;102309.16;5010476;28;20211;-47
2022/01/14 09:48:36;;;;;;;17.70;14.50;;;;;;;1.47;100.00;102305.09;5018462;28;20183;-47
2022/01/14 09:51:02;;;;;;;19.30;16.10;;;;;;;1.55;100.00;102297.03;5009473;28;20287;-47
2022/01/14 09:53:30;;;;;;;18.83;16.37;;;;;;;1.58;100.00;102298.09;5019245;28;20188;-48
2022/01/14 09:55:55;;;;;;;17.77;14.13;;;;;;;1.62;100.00;102305.16;5012219;28;20235;-47
2022/01/14 09:58:26;;;;;;;14.80;13.13;;;;;;;1.71;100.00;102311.59;5002379;28;20219;-47
2022/01/14 10:01:06;;;;;;;16.43;13.00;;;;;;;1.81;100.00;102304.59;5014915;28;20191;-47
2022/01/14 10:03:32;;;;;;;15.50;13.83;;;;;;;1.88;100.00;102307.53;5004020;28;20232;-47
2022/01/14 10:05:57;;;;;;;15.10;11.90;;;;;;;1.90;100.00;102309.34;5002461;28;20252;-46
2022/01/14 10:08:26;;;;;;;15.13;13.40;;;;;;;1.98;100.00;102308.13;4991511;28;20562;-47
2022/01/14 10:10:59;;;;;;;19.33;15.47;;;;;;;2.07;100.00;102302.69;5009557;28;20221;-46
2022/01/14 10:13:26;;;;;;;16.83;14.13;;;;;;;2.16;100.00;102314.25;5008984;28;20377;-48
2022/01/14 10:15:58;;;;;;;15.73;13.93;;;;;;;2.22;100.00;102318.03;5004643;28;20223;-48
2022/01/14 10:18:24;;;;;;;15.23;13.60;;;;;;;2.31;100.00;102317.69;5013965;28;20649;-48
2022/01/14 10:20:50;;;;;;;17.27;14.47;;;;;;;2.38;100.00;102321.47;5007424;28;20185;-46
2022/01/14 10:23:16;;;;;;;17.77;15.23;;;;;;;2.42;100.00;102319.19;4991522;28;20177;-46
2022/01/14 10:25:55;;;;;;;21.07;16.73;;;;;;;2.47;100.00;102306.66;4991483;28;20275;-46
2022/01/14 10:28:21;;;;;;;17.13;14.00;;;;;;;2.54;100.00;102313.00;4997225;28;20197;-46
2022/01/14 10:30:49;;;;;;;20.30;17.20;;;;;;;2.60;100.00;102310.78;4991660;28;20181;-48
2022/01/14 10:33:19;;;;;;;19.77;16.90;;;;;;;2.63;100.00;102310.97;5002647;28;20191;-47
2022/01/14 10:35:46;;;;;;;23.40;19.23;;;;;;;2.66;100.00;102315.38;5013573;28;20200;-47
2022/01/14 10:38:15;;;;;;;22.63;19.40;;;;;;;2.67;100.00;102310.31;5013787;28;20233;-47
2022/01/14 10:40:54;;;;;;;21.13;16.77;;;;;;;2.74;100.00;102307.34;5023180;28;20254;-48
2022/01/14 10:43:22;;;;;;;19.70;16.97;;;;;;;2.78;100.00;102299.84;5008389;28;20191;-46
2022/01/14 10:45:49;;;;;;;22.53;17.77;;;;;;;2.81;100.00;102297.44;5013550;28;20711;-46
2022/01/14 10:48:16;;;;;;;24.83;20.17;;;;;;;2.76;100.00;102289.50;5010202;28;20195;-47
2022/01/14 10:50:54;;;;;;;22.33;18.80;;;;;;;2.73;100.00;102286.78;5010776;28;20232;-48
2022/01/14 10:53:31;;;;;;;24.43;19.80;;;;;;;2.73;100.00;102279.09;5004879;28;20773;-48
2022/01/14 10:56:01;;;;;;;22.87;19.50;;;;;;;2.75;100.00;102267.28;5005398;28;20497;-46
2022/01/14 10:58:34;;;;;;;19.63;16.67;;;;;;;2.80;100.00;102259.91;5008416;28;20498;-47
2022/01/14 11:01:03;;;;;;;18.03;14.73;;;;;;;2.90;100.00;102251.91;5007882;28;20192;-48
2022/01/14 11:03:41;;;;;;;19.33;16.83;;;;;;;3.02;100.00;102252.56;5009328;28;20446;-48
2022/01/14 11:06:22;;;;;;;23.70;19.47;;;;;;;3.11;100.00;102246.19;4988750;28;20236;-47
2022/01/14 11:09:00;;;;;;;24.93;20.93;;;;;;;3.12;100.00;102242.81;5003795;28;20196;-47
2022/01/14 11:11:28;;;;;;;21.07;16.77;;;;;;;3.17;100.00;102238.84;5000657;28;20552;-47
2022/01/14 11:13:53;;;;;;;21.73;17.37;;;;;;;3.28;100.00;102242.84;4994266;28;20602;-47
2022/01/14 11:16:19;;;;;;;19.40;16.77;;;;;;;3.37;100.00;102244.13;4993268;28;20231;-47
2022/01/14 11:18:50;;;;;;;20.77;17.63;;;;;;;3.43;100.00;102247.00;4999429;28;20272;-48
2022/01/14 11:24:04;;;;;;;21.80;17.57;;;;;;;3.46;100.00;102231.81;5000395;28;20750;-47
2022/01/14 11:26:35;;;;;;;25.43;20.20;;;;;;;3.50;100.00;102224.34;5009145;28;20224;-47
2022/01/14 11:29:15;;;;;;;23.37;20.33;;;;;;;3.50;100.00;102221.78;4997806;28;20278;-47
2022/01/14 11:31:42;;;;;;;24.23;19.80;;;;;;;3.50;100.00;102210.69;4993804;28;20665;-47